createdAt,value
2019-06-01T00:04:52.608Z,0.00
2019-06-01T00:10:14.282Z,0.00
2019-06-01T00:15:36.582Z,0.10
2019-06-01T00:20:58.191Z,0.20
2019-06-01T00:26:20.139Z,0.28
2019-06-01T00:31:42.962Z,0.00
2019-06-01T00:37:04.836Z,1.70
2019-06-01T00:42:26.301Z,0.50
2019-06-01T00:47:48.910Z,1.60
2019-06-01T00:53:10.794Z,0.00
2019-06-01T00:58:32.338Z,0.40
2019-06-01T01:03:54.442Z,1.00
2019-06-01T01:09:16.123Z,0.35
2019-06-01T01:14:38.084Z,0.70
2019-06-01T01:19:59.616Z,0.28
2019-06-01T01:25:21.114Z,0.00
2019-06-01T01:30:59.977Z,1.20
2019-06-01T01:36:06.608Z,0.20
2019-06-01T01:41:28.618Z,0.40
2019-06-01T01:46:50.707Z,0.42
2019-06-01T01:52:12.614Z,1.77
2019-06-01T01:57:34.812Z,0.55
2019-06-01T02:02:56.358Z,0.30
2019-06-01T02:08:18.419Z,0.68
2019-06-01T02:13:40.180Z,0.20
2019-06-01T02:19:02.447Z,0.20
2019-06-01T02:24:24.052Z,0.40
2019-06-01T02:29:45.884Z,0.20
2019-06-01T02:35:08.043Z,0.53
2019-06-01T02:40:30.197Z,0.78
2019-06-01T02:45:52.248Z,1.72
2019-06-01T02:51:13.881Z,1.05
2019-06-01T02:56:35.668Z,0.30
2019-06-01T03:02:04.443Z,0.37
2019-06-01T03:07:22.696Z,0.30
2019-06-01T03:12:45.452Z,0.40
2019-06-01T03:18:09.390Z,3.40
2019-06-01T03:23:32.886Z,0.17
2019-06-01T03:28:56.691Z,1.22
2019-06-01T03:34:18.816Z,1.80
2019-06-01T03:39:40.856Z,0.10
2019-06-01T03:45:03.486Z,0.55
2019-06-01T03:50:25.524Z,0.10
2019-06-01T03:55:47.253Z,0.10
2019-06-01T04:01:09.167Z,0.20
2019-06-01T04:06:30.977Z,0.00
2019-06-01T04:11:52.311Z,0.40
2019-06-01T04:17:14.840Z,0.00
2019-06-01T04:22:36.776Z,0.70
2019-06-01T04:27:58.096Z,0.57
2019-06-01T04:33:19.636Z,4.67
2019-06-01T04:38:41.559Z,0.35
2019-06-01T04:44:03.814Z,0.33
2019-06-01T04:49:25.689Z,0.37
2019-06-01T04:54:47.219Z,0.35
2019-06-01T05:00:21.121Z,0.20
2019-06-01T05:05:32.273Z,1.98
2019-06-01T05:10:53.909Z,5.60
2019-06-01T05:16:16.600Z,5.65
2019-06-01T05:21:38.324Z,4.83
2019-06-01T05:26:59.491Z,4.72
2019-06-01T05:32:21.483Z,6.35
2019-06-01T05:37:43.103Z,6.90
2019-06-01T05:43:04.883Z,6.95
2019-06-01T05:48:30.389Z,7.90
2019-06-01T05:53:50.524Z,6.80
2019-06-01T05:59:12.061Z,9.70
2019-06-01T06:04:33.708Z,8.78
2019-06-01T06:09:55.615Z,11.70
2019-06-01T06:15:17.580Z,10.13
2019-06-01T06:20:39.200Z,11.55
2019-06-01T06:26:00.843Z,11.60
2019-06-01T06:31:23.188Z,10.45
2019-06-01T06:36:44.983Z,11.40
2019-06-01T06:42:06.826Z,11.10
2019-06-01T06:47:28.274Z,12.13
2019-06-01T06:52:50.051Z,10.53
2019-06-01T06:58:11.550Z,11.15
2019-06-01T07:03:33.356Z,10.15
2019-06-01T07:08:55.111Z,12.37
2019-06-01T07:14:16.914Z,12.88
2019-06-01T07:19:38.855Z,13.58
2019-06-01T07:25:01.604Z,11.95
2019-06-01T07:30:24.176Z,13.05
2019-06-01T07:35:46.177Z,13.95
2019-06-01T07:41:08.057Z,12.50
2019-06-01T07:46:29.643Z,12.13
2019-06-01T07:51:51.581Z,13.28
2019-06-01T07:57:13.484Z,12.80
2019-06-01T08:02:35.306Z,13.45
2019-06-01T08:07:57.422Z,11.18
2019-06-01T08:13:19.367Z,9.93
2019-06-01T08:18:41.765Z,10.93
2019-06-01T08:24:03.576Z,11.75
2019-06-01T08:29:26.635Z,11.97
2019-06-01T08:34:48.754Z,8.90
2019-06-01T08:40:10.383Z,10.35
2019-06-01T08:45:36.612Z,9.23
2019-06-01T08:50:55.536Z,9.20
2019-06-01T08:56:21.591Z,9.80
2019-06-01T09:01:41.329Z,10.13
2019-06-01T09:07:03.042Z,11.03
2019-06-01T09:12:25.130Z,10.13
2019-06-01T09:17:47.158Z,8.65
2019-06-01T09:23:08.602Z,7.85
2019-06-01T09:28:30.213Z,7.97
2019-06-01T09:33:51.880Z,10.70
2019-06-01T09:39:13.726Z,9.28
2019-06-01T09:44:35.539Z,13.68
2019-06-01T09:49:57.731Z,11.15
2019-06-01T09:55:19.473Z,10.68
2019-06-01T10:00:43.596Z,11.93
2019-06-01T10:06:04.763Z,11.33
2019-06-01T10:11:26.464Z,10.35
2019-06-01T10:16:48.218Z,9.25
2019-06-01T10:22:10.104Z,11.33
2019-06-01T10:27:32.455Z,11.30
2019-06-01T10:32:54.202Z,9.78
2019-06-01T10:38:15.985Z,10.45
2019-06-01T10:43:37.815Z,12.45
2019-06-01T10:48:59.805Z,8.93
2019-06-01T10:54:21.850Z,8.43
2019-06-01T10:59:43.586Z,10.00
2019-06-01T11:05:05.923Z,10.60
2019-06-01T11:10:27.479Z,9.90
2019-06-01T11:15:49.221Z,6.80
2019-06-01T11:21:10.872Z,8.28
2019-06-01T11:26:33.333Z,10.80
2019-06-01T11:31:55.236Z,11.22
2019-06-01T11:37:16.825Z,9.75
2019-06-01T11:42:39.095Z,11.08
2019-06-01T11:48:01.125Z,9.70
2019-06-01T11:53:22.793Z,11.95
2019-06-01T11:58:45.496Z,12.03
2019-06-01T12:04:07.701Z,9.48
2019-06-01T12:09:29.671Z,13.60
2019-06-01T12:14:51.641Z,9.15
2019-06-01T12:20:13.466Z,12.63
2019-06-01T12:25:34.863Z,13.00
2019-06-01T12:30:59.072Z,10.93
2019-06-01T12:36:21.463Z,11.38
2019-06-01T12:41:43.544Z,9.50
2019-06-01T12:47:05.549Z,10.15
2019-06-01T12:52:27.085Z,8.35
2019-06-01T12:57:49.365Z,7.37
2019-06-01T13:03:11.383Z,11.53
2019-06-01T13:08:32.933Z,8.65
2019-06-01T13:13:54.566Z,13.08
2019-06-01T13:19:17.521Z,9.70
2019-06-01T13:24:39.557Z,8.60
2019-06-01T13:30:01.149Z,6.42
2019-06-01T13:35:22.948Z,9.55
2019-06-01T13:40:44.829Z,8.05
2019-06-01T13:46:06.869Z,9.23
2019-06-01T13:51:28.785Z,8.65
2019-06-01T13:56:50.968Z,8.88
2019-06-01T14:02:12.573Z,12.33
2019-06-01T14:07:34.114Z,6.53
2019-06-01T14:12:55.606Z,7.65
2019-06-01T14:18:17.301Z,8.58
2019-06-01T14:23:38.860Z,7.00
2019-06-01T14:29:00.883Z,7.40
2019-06-01T14:34:22.275Z,5.22
2019-06-01T14:39:44.222Z,9.23
2019-06-01T14:45:07.583Z,8.28
2019-06-01T14:50:29.481Z,10.05
2019-06-01T14:55:51.734Z,7.37
2019-06-01T15:01:28.921Z,9.65
2019-06-01T15:06:37.252Z,8.63
2019-06-01T15:11:59.010Z,8.55
2019-06-01T15:17:20.870Z,8.00
2019-06-01T15:22:42.462Z,10.45
2019-06-01T15:28:04.356Z,10.00
2019-06-01T15:33:26.092Z,10.28
2019-06-01T15:38:48.026Z,8.38
2019-06-01T15:44:09.473Z,14.73
2019-06-01T15:49:31.359Z,10.38
2019-06-01T15:54:54.256Z,9.63
2019-06-01T16:00:16.614Z,9.13
2019-06-01T16:05:38.464Z,8.75
2019-06-01T16:11:04.568Z,8.95
2019-06-01T16:16:24.062Z,11.33
2019-06-01T16:21:45.898Z,14.53
2019-06-01T16:27:07.597Z,11.20
2019-06-01T16:32:29.089Z,12.25
2019-06-01T16:37:51.087Z,12.10
2019-06-01T16:43:12.770Z,12.82
2019-06-01T16:48:34.158Z,13.38
2019-06-01T16:53:56.393Z,11.85
2019-06-01T16:59:18.384Z,12.80
2019-06-01T17:04:40.024Z,16.32
2019-06-01T17:10:19.284Z,13.38
2019-06-01T17:15:25.444Z,14.58
2019-06-01T17:20:48.884Z,16.85
2019-06-01T17:26:10.923Z,11.55
2019-06-01T17:31:32.707Z,11.38
2019-06-01T17:36:54.324Z,14.43
2019-06-01T17:42:15.876Z,17.00
2019-06-01T17:47:40.979Z,14.80
2019-06-01T17:53:02.528Z,13.65
2019-06-01T17:58:24.646Z,15.25
2019-06-01T18:03:46.299Z,15.70
2019-06-01T18:09:08.714Z,14.28
2019-06-01T18:14:30.147Z,13.43
2019-06-01T18:19:51.845Z,17.87
2019-06-01T18:25:19.041Z,16.20
2019-06-01T18:30:40.849Z,15.95
2019-06-01T18:36:03.445Z,14.63
2019-06-01T18:41:24.945Z,16.45
2019-06-01T18:46:46.550Z,21.42
2019-06-01T18:52:08.656Z,15.80
2019-06-01T18:57:31.171Z,15.35
2019-06-01T19:02:52.853Z,16.77
2019-06-01T19:08:15.920Z,15.58
2019-06-01T19:13:37.787Z,14.80
2019-06-01T19:18:59.638Z,16.75
2019-06-01T19:24:21.477Z,15.65
2019-06-01T19:29:43.640Z,16.73
2019-06-01T19:35:07.402Z,15.20
2019-06-01T19:40:33.640Z,14.78
2019-06-01T19:45:55.330Z,15.50
2019-06-01T19:51:18.680Z,16.23
2019-06-01T19:56:40.529Z,15.38
2019-06-01T20:02:02.378Z,16.25
2019-06-01T20:07:24.771Z,14.68
2019-06-01T20:12:46.774Z,16.85
2019-06-01T20:18:08.309Z,15.23
2019-06-01T20:23:29.913Z,16.73
2019-06-01T20:28:51.905Z,16.00
2019-06-01T20:34:14.308Z,16.62
2019-06-01T20:39:35.848Z,16.80
2019-06-01T20:44:57.595Z,16.52
2019-06-01T20:50:20.838Z,15.05
2019-06-01T20:55:42.673Z,15.83
2019-06-01T21:01:04.636Z,15.25
2019-06-01T21:06:26.481Z,16.90
2019-06-01T21:11:48.597Z,18.95
2019-06-01T21:17:10.149Z,16.07
2019-06-01T21:22:31.943Z,16.93
2019-06-01T21:27:53.772Z,18.60
2019-06-01T21:33:15.518Z,17.50
2019-06-01T21:38:38.577Z,17.35
2019-06-01T21:43:59.981Z,16.55
2019-06-01T21:49:22.180Z,16.95
2019-06-01T21:54:43.952Z,18.52
2019-06-01T22:00:07.934Z,19.90
2019-06-01T22:05:29.383Z,19.57
2019-06-01T22:10:51.223Z,17.92
2019-06-01T22:16:13.175Z,18.17
2019-06-01T22:21:34.618Z,18.87
2019-06-01T22:26:56.376Z,17.52
2019-06-01T22:32:22.455Z,19.23
2019-06-01T22:37:41.986Z,18.48
2019-06-01T22:43:03.604Z,18.30
2019-06-01T22:48:25.239Z,17.62
2019-06-01T22:53:47.090Z,18.98
2019-06-01T22:59:08.655Z,17.67
2019-06-01T23:04:31.380Z,18.65
2019-06-01T23:09:53.288Z,16.73
2019-06-01T23:15:14.998Z,18.92
2019-06-01T23:20:36.792Z,17.90
2019-06-01T23:25:58.328Z,17.48
2019-06-01T23:31:19.597Z,16.50
2019-06-01T23:36:41.446Z,17.92
2019-06-01T23:42:03.122Z,18.42
2019-06-01T23:47:25.685Z,17.82
2019-06-01T23:52:47.472Z,16.57
2019-06-01T23:58:09.096Z,18.65
